createdAt,value
2023-03-06T00:01:52.266Z,99059.64
2023-03-06T00:04:21.505Z,99051.44
2023-03-06T00:06:51.427Z,99051.64
2023-03-06T00:09:20.371Z,99050.18
2023-03-06T00:11:49.609Z,99051.55
2023-03-06T00:14:19.103Z,99041.59
2023-03-06T00:16:48.494Z,99039.77
2023-03-06T00:19:17.508Z,99038.05
2023-03-06T00:21:51.727Z,99039.42
2023-03-06T00:24:22.540Z,99039.99
2023-03-06T00:26:51.636Z,99039.49
2023-03-06T00:29:20.657Z,99041.66
2023-03-06T00:31:53.261Z,99042.45
2023-03-06T00:34:22.272Z,99043.05
2023-03-06T00:36:52.183Z,99043.31
2023-03-06T00:39:24.307Z,99043.03
2023-03-06T00:41:56.071Z,99049.23
2023-03-06T00:44:27.350Z,99052.92
2023-03-06T00:46:56.596Z,99053.63
2023-03-06T00:49:25.678Z,99052.84
2023-03-06T00:51:54.356Z,99047.06
2023-03-06T00:54:23.906Z,99045.63
2023-03-06T00:56:52.564Z,99040.94
2023-03-06T00:59:22.167Z,99044.39
2023-03-06T01:01:53.053Z,99044.86
2023-03-06T01:04:22.406Z,99045.95
2023-03-06T01:06:52.791Z,99049.48
2023-03-06T01:09:22.429Z,99047.77
2023-03-06T01:11:51.913Z,99050.45
2023-03-06T01:14:20.613Z,99052.23
2023-03-06T01:16:49.626Z,99055.86
2023-03-06T01:19:19.836Z,99054.32
2023-03-06T01:21:48.628Z,99054.78
2023-03-06T01:24:17.533Z,99051.28
2023-03-06T01:26:46.184Z,99051.36
2023-03-06T01:29:14.919Z,99049.99
2023-03-06T01:31:43.790Z,99050.66
2023-03-06T01:34:12.682Z,99054.92
2023-03-06T01:36:41.730Z,99048.02
2023-03-06T01:39:11.924Z,99043.77
2023-03-06T01:41:41.086Z,99043.54
2023-03-06T01:44:11.395Z,99039.83
2023-03-06T01:46:42.716Z,99035.38
2023-03-06T01:49:24.361Z,99037.52
2023-03-06T01:51:58.364Z,99034.95
2023-03-06T01:54:29.345Z,99033.45
2023-03-06T01:57:06.331Z,99025.81
2023-03-06T01:59:35.388Z,99027.30
2023-03-06T02:02:04.209Z,99020.80
2023-03-06T02:04:32.996Z,99023.19
2023-03-06T02:07:01.745Z,99022.27
2023-03-06T02:09:34.607Z,99016.77
2023-03-06T02:12:10.589Z,99019.56
2023-03-06T02:14:39.735Z,99016.80
2023-03-06T02:17:11.356Z,99018.70
2023-03-06T02:19:54.308Z,99016.13
2023-03-06T02:22:23.187Z,99016.97
2023-03-06T02:24:57.958Z,99013.95
2023-03-06T02:27:29.961Z,99011.70
2023-03-06T02:29:58.572Z,99013.70
2023-03-06T02:32:27.422Z,99009.78
2023-03-06T02:35:00.994Z,99009.52
2023-03-06T02:37:29.998Z,99012.65
2023-03-06T02:40:04.243Z,99010.89
2023-03-06T02:42:33.167Z,99016.27
2023-03-06T02:45:02.732Z,99012.30
2023-03-06T02:47:31.832Z,99015.35
2023-03-06T02:50:01.929Z,99011.58
2023-03-06T02:52:31.866Z,99011.77
2023-03-06T02:55:00.518Z,99008.42
2023-03-06T02:57:30.269Z,99007.16
2023-03-06T03:00:00.301Z,99007.98
2023-03-06T03:02:29.297Z,99008.23
2023-03-06T03:04:58.715Z,99007.85
2023-03-06T03:07:27.519Z,99008.11
2023-03-06T03:09:56.788Z,99006.48
2023-03-06T03:12:25.399Z,99006.77
2023-03-06T03:14:55.814Z,99007.48
2023-03-06T03:17:24.755Z,99006.45
2023-03-06T03:19:53.374Z,99004.85
2023-03-06T03:22:22.433Z,99009.55
2023-03-06T03:24:52.534Z,99007.11
2023-03-06T03:27:21.896Z,99008.05
2023-03-06T03:29:53.547Z,99011.30
2023-03-06T03:32:22.781Z,99008.88
2023-03-06T03:34:52.326Z,99007.91
2023-03-06T03:37:21.476Z,99007.77
2023-03-06T03:39:50.162Z,99005.89
2023-03-06T03:42:18.952Z,99004.09
2023-03-06T03:44:47.797Z,99007.82
2023-03-06T03:47:18.361Z,99006.52
2023-03-06T03:49:48.075Z,99010.13
2023-03-06T03:52:20.210Z,99012.61
2023-03-06T03:54:49.091Z,99012.30
2023-03-06T03:57:18.073Z,99016.39
2023-03-06T03:59:49.779Z,99015.01
2023-03-06T04:02:44.484Z,99017.69
2023-03-06T04:05:20.951Z,99016.61
2023-03-06T04:07:50.250Z,99015.25
2023-03-06T04:10:19.272Z,99016.02
2023-03-06T04:12:48.696Z,99018.54
2023-03-06T04:15:18.232Z,99016.96
2023-03-06T04:17:47.865Z,99019.55
2023-03-06T04:20:19.543Z,99021.88
2023-03-06T04:22:49.265Z,99024.07
2023-03-06T04:25:18.326Z,99023.47
2023-03-06T04:27:46.906Z,99025.13
2023-03-06T04:30:17.472Z,99024.73
2023-03-06T04:32:46.494Z,99030.08
2023-03-06T04:35:15.972Z,99034.16
2023-03-06T04:37:52.777Z,99035.46
2023-03-06T04:40:27.824Z,99032.64
2023-03-06T04:42:59.740Z,99034.37
2023-03-06T04:45:28.932Z,99034.13
2023-03-06T04:48:01.165Z,99037.58
2023-03-06T04:50:32.844Z,99042.48
2023-03-06T04:53:02.853Z,99045.32
2023-03-06T04:55:31.911Z,99048.51
2023-03-06T04:58:00.441Z,99051.23
2023-03-06T05:00:32.283Z,99054.15
2023-03-06T05:03:01.254Z,99056.29
2023-03-06T05:05:30.023Z,99058.06
2023-03-06T05:07:58.800Z,99063.23
2023-03-06T05:10:28.155Z,99065.09
2023-03-06T05:12:56.975Z,99067.85
2023-03-06T05:15:25.916Z,99065.81
2023-03-06T05:17:57.168Z,99063.95
2023-03-06T05:20:29.108Z,99068.57
2023-03-06T05:23:02.505Z,99073.41
2023-03-06T05:25:32.892Z,99071.43
2023-03-06T05:28:01.770Z,99072.69
2023-03-06T05:30:31.445Z,99078.81
2023-03-06T05:33:00.610Z,99080.23
2023-03-06T05:35:29.898Z,99079.67
2023-03-06T05:37:58.790Z,99090.45
2023-03-06T05:40:28.158Z,99091.90
2023-03-06T05:42:56.713Z,99090.34
2023-03-06T05:45:25.287Z,99092.77
2023-03-06T05:47:54.206Z,99091.25
2023-03-06T05:50:23.737Z,99088.83
2023-03-06T05:52:53.219Z,99090.26
2023-03-06T05:55:23.072Z,99086.34
2023-03-06T05:57:52.048Z,99092.19
2023-03-06T06:00:21.151Z,99093.13
2023-03-06T06:02:50.541Z,99088.83
2023-03-06T06:05:19.105Z,99086.20
2023-03-06T06:07:47.741Z,99088.48
2023-03-06T06:10:16.599Z,99090.87
2023-03-06T06:12:45.167Z,99093.48
2023-03-06T06:15:16.264Z,99092.22
2023-03-06T06:17:46.194Z,99097.65
2023-03-06T06:20:15.148Z,99092.78
2023-03-06T06:22:44.654Z,99092.70
2023-03-06T06:25:13.633Z,99097.02
2023-03-06T06:27:44.365Z,99098.33
2023-03-06T06:30:13.803Z,99110.14
2023-03-06T06:32:42.711Z,99117.17
2023-03-06T06:35:11.482Z,99118.28
2023-03-06T06:37:40.126Z,99123.94
2023-03-06T06:40:10.618Z,99126.55
2023-03-06T06:42:40.343Z,99125.23
2023-03-06T06:45:10.434Z,99131.81
2023-03-06T06:47:41.947Z,99137.55
2023-03-06T06:50:12.811Z,99138.73
2023-03-06T06:52:42.061Z,99139.89
2023-03-06T06:55:11.324Z,99146.17
2023-03-06T06:57:40.966Z,99142.61
2023-03-06T07:00:10.002Z,99142.25
2023-03-06T07:02:40.312Z,99149.39
2023-03-06T07:05:09.554Z,99153.16
2023-03-06T07:07:38.399Z,99157.08
2023-03-06T07:10:08.239Z,99161.05
2023-03-06T07:12:42.953Z,99161.28
2023-03-06T07:15:12.948Z,99168.20
2023-03-06T07:17:41.709Z,99169.58
2023-03-06T07:20:15.280Z,99170.71
2023-03-06T07:22:51.498Z,99171.69
2023-03-06T07:25:21.108Z,99173.55
2023-03-06T07:27:54.534Z,99175.50
2023-03-06T07:30:23.313Z,99175.80
2023-03-06T07:32:53.346Z,99178.53
2023-03-06T07:35:22.441Z,99181.48
2023-03-06T07:37:51.935Z,99185.67
2023-03-06T07:40:21.200Z,99186.46
2023-03-06T07:42:50.105Z,99189.39
2023-03-06T07:45:22.138Z,99191.44
2023-03-06T07:47:51.288Z,99191.18
2023-03-06T07:50:19.927Z,99193.31
2023-03-06T07:52:49.335Z,99194.65
2023-03-06T07:55:18.066Z,99198.41
2023-03-06T07:57:47.044Z,99201.38
2023-03-06T08:00:16.053Z,99199.30
2023-03-06T08:02:45.369Z,99203.70
2023-03-06T08:05:14.911Z,99201.84
2023-03-06T08:07:44.181Z,99203.48
2023-03-06T08:10:13.501Z,99207.00
2023-03-06T08:12:42.927Z,99208.45
2023-03-06T08:15:12.190Z,99211.48
2023-03-06T08:17:41.762Z,99211.66
2023-03-06T08:20:10.882Z,99216.85
2023-03-06T08:22:39.626Z,99217.30
2023-03-06T08:25:08.848Z,99214.07
2023-03-06T08:27:37.785Z,99215.90
2023-03-06T08:30:08.093Z,99218.24
2023-03-06T08:32:37.541Z,99222.78
2023-03-06T08:35:06.672Z,99225.78
2023-03-06T08:37:38.510Z,99226.10
2023-03-06T08:40:07.673Z,99230.36
2023-03-06T08:42:50.164Z,99228.48
2023-03-06T08:45:19.757Z,99233.08
2023-03-06T08:47:48.625Z,99232.48
2023-03-06T08:50:17.652Z,99231.89
2023-03-06T08:52:46.901Z,99234.39
2023-03-06T08:55:15.855Z,99235.52
2023-03-06T08:57:44.786Z,99241.13
2023-03-06T09:00:17.752Z,99239.65
2023-03-06T09:02:46.677Z,99245.35
2023-03-06T09:05:15.796Z,99246.34
2023-03-06T09:07:44.796Z,99247.40
2023-03-06T09:10:17.277Z,99251.73
2023-03-06T09:13:06.173Z,99252.32
2023-03-06T09:15:35.761Z,99253.16
2023-03-06T09:18:05.066Z,99252.60
2023-03-06T09:20:34.332Z,99250.70
2023-03-06T09:23:03.265Z,99252.33
2023-03-06T09:25:32.262Z,99259.20
2023-03-06T09:28:11.334Z,99263.98
2023-03-06T09:30:45.456Z,99262.59
2023-03-06T09:33:15.369Z,99262.11
2023-03-06T09:35:51.547Z,99258.55
2023-03-06T09:38:21.728Z,99259.98
2023-03-06T09:41:02.697Z,99264.70
2023-03-06T09:43:36.121Z,99265.48
2023-03-06T09:46:23.924Z,99263.23
2023-03-06T09:49:11.769Z,99260.42
2023-03-06T09:52:01.685Z,99259.30
2023-03-06T09:54:37.454Z,99264.52
2023-03-06T09:57:08.434Z,99256.40
2023-03-06T09:59:39.002Z,99256.24
2023-03-06T10:02:15.442Z,99259.40
2023-03-06T10:04:51.590Z,99261.73
2023-03-06T10:07:39.726Z,99262.31
2023-03-06T10:10:11.803Z,99262.64
2023-03-06T10:12:41.733Z,99263.98
2023-03-06T10:15:26.157Z,99262.94
2023-03-06T10:17:58.471Z,99266.11
2023-03-06T10:20:28.860Z,99261.64
2023-03-06T10:23:22.601Z,99260.58
2023-03-06T10:25:57.952Z,99252.02
2023-03-06T10:28:31.534Z,99253.04
2023-03-06T10:31:07.616Z,99250.82
2023-03-06T10:33:56.563Z,99241.46
2023-03-06T10:36:29.555Z,99248.50
2023-03-06T10:38:58.916Z,99246.42
2023-03-06T10:41:28.602Z,99243.77
2023-03-06T10:44:00.856Z,99249.36
2023-03-06T10:46:30.960Z,99246.86
2023-03-06T10:49:00.947Z,99248.13
2023-03-06T10:51:31.347Z,99242.11
2023-03-06T10:54:04.916Z,99239.15
2023-03-06T10:56:38.105Z,99244.16
2023-03-06T10:59:07.326Z,99239.98
2023-03-06T11:01:41.102Z,99241.52
2023-03-06T11:04:23.568Z,99244.13
2023-03-06T11:07:05.101Z,99234.23
2023-03-06T11:09:34.789Z,99233.21
2023-03-06T11:12:23.421Z,99234.36
2023-03-06T11:15:10.265Z,99235.20
2023-03-06T11:17:53.055Z,99232.89
2023-03-06T11:20:23.795Z,99226.50
2023-03-06T11:22:57.145Z,99228.89
2023-03-06T11:25:48.854Z,99235.36
2023-03-06T11:28:23.277Z,99235.24
2023-03-06T11:30:57.277Z,99234.02
2023-03-06T11:33:37.908Z,99228.33
2023-03-06T11:36:16.790Z,99232.73
2023-03-06T11:38:52.092Z,99227.38
2023-03-06T11:41:39.739Z,99238.00
2023-03-06T11:44:08.820Z,99244.26
2023-03-06T11:46:38.668Z,99242.04
2023-03-06T11:49:23.163Z,99238.80
2023-03-06T11:51:55.231Z,99241.81
2023-03-06T11:54:24.490Z,99239.38
2023-03-06T11:56:56.029Z,99250.31
2023-03-06T11:59:25.212Z,99250.55
2023-03-06T12:02:01.193Z,99249.71
2023-03-06T12:04:50.049Z,99251.91
2023-03-06T12:07:33.015Z,99251.92
2023-03-06T12:10:51.468Z,99247.34
2023-03-06T12:13:30.484Z,99242.73
2023-03-06T12:16:05.157Z,99245.61
2023-03-06T12:18:58.281Z,99255.02
2023-03-06T12:21:39.523Z,99255.93
2023-03-06T12:24:23.084Z,99253.77
2023-03-06T12:27:07.654Z,99256.68
2023-03-06T12:29:40.530Z,99255.67
2023-03-06T12:32:20.199Z,99251.45
2023-03-06T12:34:49.210Z,99255.85
2023-03-06T12:37:38.244Z,99255.44
2023-03-06T12:40:26.462Z,99261.04
2023-03-06T12:42:55.774Z,99263.19
2023-03-06T12:45:24.584Z,99263.52
2023-03-06T12:47:57.070Z,99258.54
2023-03-06T12:50:33.125Z,99262.40
2023-03-06T12:53:03.593Z,99261.94
2023-03-06T12:55:51.817Z,99265.81
2023-03-06T12:58:28.625Z,99267.98
2023-03-06T13:01:03.495Z,99268.95
2023-03-06T13:03:39.824Z,99268.18
2023-03-06T13:06:14.974Z,99265.31
2023-03-06T13:08:53.354Z,99264.86
2023-03-06T13:11:36.670Z,99254.55
2023-03-06T13:14:25.160Z,99254.96
2023-03-06T13:16:54.850Z,99262.71
2023-03-06T13:19:24.454Z,99259.97
2023-03-06T13:22:00.745Z,99260.14
2023-03-06T13:24:30.798Z,99264.09
2023-03-06T13:27:06.418Z,99262.42
2023-03-06T13:29:39.015Z,99269.92
2023-03-06T13:32:16.448Z,99272.34
2023-03-06T13:34:50.512Z,99265.92
2023-03-06T13:37:21.652Z,99268.83
2023-03-06T13:39:57.326Z,99276.60
2023-03-06T13:42:29.168Z,99275.17
2023-03-06T13:44:58.799Z,99272.52
2023-03-06T13:47:30.497Z,99275.15
2023-03-06T13:49:59.431Z,99275.05
2023-03-06T13:52:33.260Z,99281.48
2023-03-06T13:55:08.425Z,99280.04
2023-03-06T13:57:43.679Z,99276.60
2023-03-06T14:00:14.771Z,99281.02
2023-03-06T14:02:49.885Z,99277.21
2023-03-06T14:05:19.310Z,99281.09
2023-03-06T14:07:49.460Z,99280.35
2023-03-06T14:10:22.763Z,99275.35
2023-03-06T14:12:51.912Z,99275.93
2023-03-06T14:15:22.988Z,99283.38
2023-03-06T14:18:02.774Z,99284.59
2023-03-06T14:20:33.765Z,99281.04
2023-03-06T14:23:16.928Z,99283.88
2023-03-06T14:25:46.242Z,99286.11
2023-03-06T14:28:25.173Z,99283.98
2023-03-06T14:30:54.424Z,99290.72
2023-03-06T14:33:46.670Z,99290.63
2023-03-06T14:36:16.241Z,99296.33
2023-03-06T14:38:48.189Z,99293.31
2023-03-06T14:41:27.385Z,99293.90
2023-03-06T14:44:09.794Z,99295.09
2023-03-06T14:46:38.734Z,99296.91
2023-03-06T14:49:07.990Z,99294.89
2023-03-06T14:51:37.964Z,99298.84
2023-03-06T14:54:10.396Z,99302.83
2023-03-06T14:56:41.851Z,99301.92
2023-03-06T14:59:11.373Z,99307.94
2023-03-06T15:01:41.559Z,99304.04
2023-03-06T15:04:17.039Z,99311.50
2023-03-06T15:06:47.166Z,99310.47
2023-03-06T15:09:16.119Z,99313.63
2023-03-06T15:11:52.807Z,99309.54
2023-03-06T15:14:23.064Z,99315.10
2023-03-06T15:16:51.857Z,99317.45
2023-03-06T15:19:21.388Z,99310.85
2023-03-06T15:21:52.006Z,99314.98
2023-03-06T15:24:34.923Z,99313.23
2023-03-06T15:27:04.948Z,99314.41
2023-03-06T15:29:34.437Z,99314.61
2023-03-06T15:32:22.475Z,99320.61
2023-03-06T15:35:10.687Z,99321.87
2023-03-06T15:37:40.073Z,99322.15
2023-03-06T15:40:18.196Z,99325.63
2023-03-06T15:42:50.572Z,99326.77
2023-03-06T15:45:20.305Z,99324.97
2023-03-06T15:47:49.922Z,99325.46
2023-03-06T15:50:20.152Z,99330.35
2023-03-06T15:52:49.045Z,99334.13
2023-03-06T15:55:21.825Z,99342.11
2023-03-06T15:57:54.659Z,99344.85
2023-03-06T16:00:28.818Z,99350.33
2023-03-06T16:02:58.898Z,99346.25
2023-03-06T16:05:27.949Z,99349.53
2023-03-06T16:07:56.894Z,99353.23
2023-03-06T16:10:29.935Z,99355.52
2023-03-06T16:13:06.732Z,99362.77
2023-03-06T16:15:39.780Z,99366.98
2023-03-06T16:18:11.660Z,99366.73
2023-03-06T16:20:42.167Z,99372.03
2023-03-06T16:23:11.043Z,99373.14
2023-03-06T16:25:41.143Z,99371.86
2023-03-06T16:28:12.712Z,99372.11
2023-03-06T16:30:43.470Z,99378.69
2023-03-06T16:33:12.997Z,99376.89
2023-03-06T16:35:47.828Z,99375.39
2023-03-06T16:38:17.336Z,99380.80
2023-03-06T16:40:46.105Z,99381.23
2023-03-06T16:43:16.555Z,99377.13
2023-03-06T16:45:45.712Z,99381.48
2023-03-06T16:48:17.207Z,99380.46
2023-03-06T16:50:46.030Z,99377.95
2023-03-06T16:53:18.064Z,99376.00
2023-03-06T16:55:46.820Z,99378.91
2023-03-06T16:58:15.455Z,99378.04
2023-03-06T17:00:44.237Z,99377.27
2023-03-06T17:03:13.109Z,99378.77
2023-03-06T17:05:44.043Z,99376.21
2023-03-06T17:08:12.827Z,99374.42
2023-03-06T17:10:42.002Z,99374.95
2023-03-06T17:13:12.458Z,99372.58
2023-03-06T17:15:41.949Z,99370.16
2023-03-06T17:18:11.744Z,99374.48
2023-03-06T17:20:49.154Z,99374.70
2023-03-06T17:23:19.084Z,99370.56
2023-03-06T17:25:47.613Z,99375.04
2023-03-06T17:28:17.119Z,99377.43
2023-03-06T17:30:45.909Z,99379.52
2023-03-06T17:33:17.025Z,99378.80
2023-03-06T17:35:45.773Z,99375.26
2023-03-06T17:38:17.857Z,99377.71
2023-03-06T17:40:47.113Z,99375.09
2023-03-06T17:43:15.690Z,99380.24
2023-03-06T17:45:45.770Z,99377.23
2023-03-06T17:48:14.916Z,99381.90
2023-03-06T17:50:46.232Z,99376.71
2023-03-06T17:53:15.292Z,99376.12
2023-03-06T17:55:43.870Z,99382.17
2023-03-06T17:58:12.636Z,99376.54
2023-03-06T18:00:41.943Z,99380.95
2023-03-06T18:03:10.818Z,99383.48
2023-03-06T18:05:41.112Z,99389.50
2023-03-06T18:08:10.717Z,99387.14
2023-03-06T18:10:40.839Z,99387.02
2023-03-06T18:13:10.509Z,99388.43
2023-03-06T18:15:40.035Z,99390.60
2023-03-06T18:18:11.601Z,99391.91
2023-03-06T18:20:44.709Z,99390.91
2023-03-06T18:23:18.812Z,99388.21
2023-03-06T18:25:48.705Z,99389.78
2023-03-06T18:28:17.633Z,99391.01
2023-03-06T18:30:46.898Z,99392.99
2023-03-06T18:33:17.282Z,99393.87
2023-03-06T18:35:45.924Z,99398.33
2023-03-06T18:38:16.655Z,99400.86
2023-03-06T18:40:45.316Z,99404.46
2023-03-06T18:43:14.062Z,99402.24
2023-03-06T18:45:44.560Z,99405.84
2023-03-06T18:48:13.221Z,99405.08
2023-03-06T18:50:41.905Z,99402.85
2023-03-06T18:53:10.509Z,99404.41
2023-03-06T18:55:39.299Z,99401.84
2023-03-06T18:58:09.043Z,99399.63
2023-03-06T19:00:38.785Z,99398.32
2023-03-06T19:03:07.515Z,99401.90
2023-03-06T19:05:40.507Z,99405.41
2023-03-06T19:08:09.860Z,99405.20
2023-03-06T19:10:39.299Z,99403.73
2023-03-06T19:13:10.351Z,99407.66
2023-03-06T19:15:43.891Z,99400.91
2023-03-06T19:18:14.794Z,99408.36
2023-03-06T19:20:44.193Z,99412.65
2023-03-06T19:23:12.911Z,99409.08
2023-03-06T19:25:41.448Z,99415.71
2023-03-06T19:28:10.090Z,99416.44
2023-03-06T19:30:41.936Z,99418.02
2023-03-06T19:33:12.106Z,99416.89
2023-03-06T19:35:40.842Z,99418.63
2023-03-06T19:38:13.393Z,99414.55
2023-03-06T19:40:48.294Z,99416.30
2023-03-06T19:43:17.455Z,99408.48
2023-03-06T19:45:46.115Z,99405.81
2023-03-06T19:48:17.803Z,99403.25
2023-03-06T19:50:46.850Z,99402.05
2023-03-06T19:53:16.435Z,99397.04
2023-03-06T19:55:45.209Z,99395.65
2023-03-06T19:58:14.066Z,99395.35
2023-03-06T20:00:44.350Z,99396.08
2023-03-06T20:03:13.281Z,99397.56
2023-03-06T20:05:47.946Z,99395.28
2023-03-06T20:08:16.434Z,99395.41
2023-03-06T20:10:46.056Z,99397.88
2023-03-06T20:13:15.641Z,99397.05
2023-03-06T20:15:44.411Z,99396.42
2023-03-06T20:18:13.371Z,99396.56
2023-03-06T20:20:42.924Z,99391.88
2023-03-06T20:23:12.217Z,99393.04
2023-03-06T20:25:41.137Z,99396.84
2023-03-06T20:28:12.363Z,99395.04
2023-03-06T20:30:40.921Z,99394.29
2023-03-06T20:33:11.260Z,99389.35
2023-03-06T20:35:40.612Z,99389.39
2023-03-06T20:38:11.625Z,99387.55
2023-03-06T20:40:41.878Z,99382.11
2023-03-06T20:43:17.443Z,99381.59
2023-03-06T20:46:07.258Z,99373.41
2023-03-06T20:48:36.270Z,99373.13
2023-03-06T20:51:06.786Z,99373.16
2023-03-06T20:53:38.190Z,99372.70
2023-03-06T20:56:07.239Z,99367.08
2023-03-06T20:58:36.377Z,99366.95
2023-03-06T21:01:05.039Z,99357.73
2023-03-06T21:03:51.404Z,99358.19
2023-03-06T21:06:21.778Z,99356.69
2023-03-06T21:08:50.615Z,99360.34
2023-03-06T21:11:19.095Z,99357.58
2023-03-06T21:13:47.645Z,99355.52
2023-03-06T21:16:18.736Z,99356.56
2023-03-06T21:18:49.455Z,99353.03
2023-03-06T21:21:20.161Z,99354.36
2023-03-06T21:23:48.792Z,99348.77
2023-03-06T21:26:18.868Z,99349.70
2023-03-06T21:28:47.458Z,99350.07
2023-03-06T21:31:16.840Z,99349.64
2023-03-06T21:33:45.675Z,99345.08
2023-03-06T21:36:14.254Z,99343.79
2023-03-06T21:38:43.441Z,99341.80
2023-03-06T21:41:12.999Z,99344.45
2023-03-06T21:43:46.521Z,99345.27
2023-03-06T21:46:16.672Z,99340.80
2023-03-06T21:48:48.272Z,99335.30
2023-03-06T21:51:19.781Z,99331.02
2023-03-06T21:53:48.544Z,99326.48
2023-03-06T21:56:18.076Z,99324.58
2023-03-06T21:58:46.783Z,99325.27
2023-03-06T22:01:24.336Z,99327.83
2023-03-06T22:03:53.774Z,99329.81
2023-03-06T22:06:23.912Z,99324.79
2023-03-06T22:08:55.327Z,99328.14
2023-03-06T22:11:24.371Z,99325.89
2023-03-06T22:13:55.369Z,99324.00
2023-03-06T22:16:25.230Z,99320.96
2023-03-06T22:18:54.310Z,99321.95
2023-03-06T22:21:23.072Z,99319.45
2023-03-06T22:23:54.800Z,99319.36
2023-03-06T22:26:25.020Z,99317.64
2023-03-06T22:28:53.687Z,99320.06
2023-03-06T22:31:27.053Z,99317.92
2023-03-06T22:33:56.200Z,99316.70
2023-03-06T22:36:25.825Z,99318.05
2023-03-06T22:38:55.376Z,99318.55
2023-03-06T22:41:24.092Z,99320.44
2023-03-06T22:43:53.197Z,99318.79
2023-03-06T22:46:21.835Z,99320.10
2023-03-06T22:48:50.516Z,99322.09
2023-03-06T22:51:20.244Z,99319.06
2023-03-06T22:53:53.519Z,99320.94
2023-03-06T22:56:23.236Z,99322.90
2023-03-06T22:58:52.552Z,99317.05
2023-03-06T23:01:23.597Z,99319.90
2023-03-06T23:03:53.233Z,99313.24
2023-03-06T23:06:28.693Z,99312.64
2023-03-06T23:08:58.638Z,99313.55
2023-03-06T23:11:30.719Z,99308.13
2023-03-06T23:14:20.470Z,99302.77
2023-03-06T23:17:09.729Z,99297.64
2023-03-06T23:19:57.530Z,99292.14
2023-03-06T23:22:44.918Z,99286.58
2023-03-06T23:25:34.000Z,99284.22
2023-03-06T23:28:03.723Z,99284.27
2023-03-06T23:30:32.693Z,99285.95
2023-03-06T23:33:01.716Z,99284.67
2023-03-06T23:35:32.580Z,99281.11
2023-03-06T23:38:03.056Z,99280.85
2023-03-06T23:40:32.305Z,99278.98
2023-03-06T23:43:00.929Z,99278.75
2023-03-06T23:45:29.916Z,99275.47
2023-03-06T23:47:59.395Z,99273.77
2023-03-06T23:50:29.143Z,99267.50
2023-03-06T23:52:58.692Z,99266.95
2023-03-06T23:55:27.960Z,99266.16
2023-03-06T23:58:03.986Z,99262.30
